Terminal Aerodrome Forecast
Issued by NWS

Home | Current Version | Previous Version | Text Only | Print | Product List | Glossary On
Versions: 1 2 3 4 5 6 7 8 9 10 11 12
000
FTUS45 KRIW 281125
TAFLND
TAF
KLND 281125Z 2812/2912 26006KT P6SM -RA OVC014
      TEMPO 2812/2816 5SM -RASN BKN009
     FM281800 34009KT P6SM -RA BKN040
     FM282100 35010KT P6SM VCSH SCT030 BKN045
     FM290200 VRB05KT P6SM FEW050
     FM291000 VRB04KT P6SM VCFG SCT005=

USA.gov is the U.S. government's official web portal to all federal, state and local government web resources and services.